Time;durP1;ratioP1;P1;durP2;ratioP2;P2;SDS_P1;SDS_P2;PMS_P1;PMS_P2;Temp;Humidity;BMP_temperature;BMP_pressure;BME280_temperature;BME280_humidity;BME280_pressure;Samples;Min_cycle;Max_cycle;Signal;HPM_P1;HPM_P2
2021/12/21 00:00:56;;;;;;;12.98;8.32;;;-2.50;99.90;;;;;;4942129;28;20039;-70
2021/12/21 00:03:22;;;;;;;16.63;8.93;;;-2.50;99.90;;;;;;4960541;28;20027;-70
2021/12/21 00:05:48;;;;;;;10.98;8.50;;;-2.50;99.90;;;;;;4943546;28;20608;-70
2021/12/21 00:08:16;;;;;;;14.23;8.70;;;-2.50;99.90;;;;;;4937342;28;20128;-70
2021/12/21 00:10:45;;;;;;;14.73;8.27;;;-2.50;99.90;;;;;;4936183;29;20074;-70
2021/12/21 00:14:17;;;;;;;14.43;8.75;;;-2.50;99.90;;;;;;4943529;28;20035;-70
2021/12/21 00:19:03;;;;;;;13.77;8.15;;;-2.60;99.90;;;;;;4942079;28;20284;-70
2021/12/21 00:21:39;;;;;;;13.32;8.60;;;-2.60;99.90;;;;;;4945111;28;20440;-70
2021/12/21 00:24:18;;;;;;;14.45;8.43;;;-2.60;99.90;;;;;;4946004;28;20515;-70
2021/12/21 00:26:43;;;;;;;15.68;8.90;;;-2.60;99.90;;;;;;4933316;29;20055;-70
2021/12/21 00:29:09;;;;;;;13.15;8.82;;;-2.60;99.90;;;;;;4981913;28;20057;-70
2021/12/21 00:31:37;;;;;;;13.15;8.13;;;-2.70;99.90;;;;;;4946740;28;20076;-70
2021/12/21 00:34:06;;;;;;;16.15;8.95;;;-2.60;99.90;;;;;;4949054;28;21512;-70
2021/12/21 00:36:32;;;;;;;15.23;9.13;;;-2.60;99.90;;;;;;4975069;28;20554;-70
2021/12/21 00:39:05;;;;;;;11.70;8.27;;;-2.70;99.90;;;;;;4926424;29;20356;-70
2021/12/21 00:41:32;;;;;;;11.30;8.57;;;-2.70;99.90;;;;;;4954316;28;20038;-70
2021/12/21 00:43:57;;;;;;;15.13;8.23;;;-2.70;99.90;;;;;;4934539;29;20051;-70
2021/12/21 00:46:23;;;;;;;13.55;8.45;;;-2.70;99.90;;;;;;4947532;28;20043;-70
2021/12/21 00:48:55;;;;;;;12.00;7.93;;;-2.70;99.90;;;;;;4948264;28;20043;-70
2021/12/21 00:51:24;;;;;;;13.18;8.38;;;-2.70;99.90;;;;;;4946724;28;20046;-70
2021/12/21 00:53:49;;;;;;;15.75;8.45;;;-2.70;99.90;;;;;;4949455;28;20051;-70
2021/12/21 00:56:15;;;;;;;13.75;8.63;;;-2.70;99.90;;;;;;4944538;28;20044;-70
2021/12/21 00:58:41;;;;;;;17.17;8.45;;;-2.70;99.90;;;;;;4945995;28;20088;-70
2021/12/21 01:01:09;;;;;;;18.35;10.27;;;-2.70;99.90;;;;;;4951624;28;20043;-70
2021/12/21 01:03:38;;;;;;;15.02;9.32;;;-2.70;99.90;;;;;;4978433;28;20109;-70
2021/12/21 01:06:37;;;;;;;15.18;10.13;;;-2.70;99.90;;;;;;4929603;29;20057;-70
2021/12/21 01:11:43;;;;;;;15.40;10.35;;;-2.70;99.90;;;;;;4946641;28;20039;-70
2021/12/21 01:16:58;;;;;;;15.25;10.00;;;-2.80;99.90;;;;;;4946887;28;20143;-70
2021/12/21 01:19:31;;;;;;;17.35;10.63;;;-2.80;99.90;;;;;;4961047;28;20100;-71
2021/12/21 01:22:16;;;;;;;17.47;9.73;;;-2.80;99.90;;;;;;4936158;29;20400;-71
2021/12/21 01:27:18;;;;;;;15.77;9.10;;;-2.80;99.90;;;;;;4944978;28;20141;-71
2021/12/21 01:29:57;;;;;;;18.70;8.75;;;-2.80;99.90;;;;;;4950074;28;20520;-71
2021/12/21 01:35:07;;;;;;;10.40;7.55;;;-2.90;99.90;;;;;;4944431;28;20451;-70
2021/12/21 01:37:47;;;;;;;9.57;7.45;;;-2.80;99.90;;;;;;4931590;29;20461;-70
2021/12/21 01:40:52;;;;;;;12.35;7.63;;;-2.90;99.90;;;;;;4950856;28;20114;-70
2021/12/21 01:51:02;;;;;;;12.48;6.57;;;-3.00;99.90;;;;;;4949126;28;20126;-71
2021/12/21 01:53:28;;;;;;;9.18;5.82;;;-2.90;99.90;;;;;;4949326;28;20040;-70
2021/12/21 01:55:53;;;;;;;12.77;6.38;;;-3.00;99.90;;;;;;4945512;28;20067;-70
2021/12/21 01:58:19;;;;;;;8.10;6.07;;;-3.00;99.90;;;;;;4949328;28;20373;-71
2021/12/21 02:00:47;;;;;;;9.25;6.15;;;-3.10;99.90;;;;;;4964760;28;20551;-71
2021/12/21 02:03:13;;;;;;;10.80;5.93;;;-3.10;99.90;;;;;;4947486;28;20031;-71
2021/12/21 02:05:39;;;;;;;11.07;6.13;;;-3.10;99.90;;;;;;4943688;28;20043;-71
2021/12/21 02:08:05;;;;;;;11.57;5.68;;;-3.10;99.90;;;;;;4942766;28;20055;-71
2021/12/21 02:10:31;;;;;;;11.32;6.22;;;-3.10;99.90;;;;;;4934234;29;20092;-70
2021/12/21 02:12:57;;;;;;;11.55;6.53;;;-3.10;99.90;;;;;;4944608;28;20031;-70
2021/12/21 02:15:25;;;;;;;7.20;5.40;;;-3.10;99.90;;;;;;4950742;28;20106;-70
2021/12/21 02:30:44;;;;;;;9.57;5.60;;;-3.20;99.90;;;;;;4943480;28;20162;-70
2021/12/21 02:33:12;;;;;;;8.40;5.55;;;-3.20;99.90;;;;;;4942665;28;20036;-70
2021/12/21 02:35:38;;;;;;;9.63;5.13;;;-3.20;99.90;;;;;;4932894;29;20046;-70
2021/12/21 02:38:04;;;;;;;9.90;5.47;;;-3.20;99.90;;;;;;4941765;28;20039;-70
2021/12/21 02:40:30;;;;;;;10.38;5.65;;;-3.20;99.90;;;;;;4944982;28;20496;-70
2021/12/21 02:42:57;;;;;;;9.50;5.13;;;-3.20;99.90;;;;;;4946512;28;20070;-70
2021/12/21 02:45:22;;;;;;;11.48;5.63;;;-3.20;99.90;;;;;;4943172;28;20050;-70
2021/12/21 02:47:48;;;;;;;9.35;5.75;;;-3.20;99.90;;;;;;4940937;28;20499;-70
2021/12/21 02:50:14;;;;;;;8.88;5.85;;;-3.30;99.90;;;;;;4970417;28;20048;-70
2021/12/21 02:52:39;;;;;;;9.20;5.82;;;-3.30;99.90;;;;;;4938978;28;20122;-70
2021/12/21 02:55:06;;;;;;;12.93;6.80;;;-3.30;99.90;;;;;;4932694;29;20138;-70
2021/12/21 02:57:32;;;;;;;9.32;6.93;;;-3.30;99.90;;;;;;4945367;28;20043;-70
2021/12/21 03:00:00;;;;;;;12.57;6.68;;;-3.30;99.90;;;;;;4934555;29;20279;-70
2021/12/21 03:02:27;;;;;;;11.40;6.85;;;-3.30;99.90;;;;;;4957541;28;20054;-70
2021/12/21 03:04:52;;;;;;;12.13;6.88;;;-3.30;99.90;;;;;;4947207;28;20074;-70
2021/12/21 03:10:09;;;;;;;9.77;6.70;;;-3.30;99.90;;;;;;4948584;28;20502;-70
2021/12/21 03:15:20;;;;;;;9.73;6.33;;;-3.30;99.90;;;;;;4947600;28;20500;-70
2021/12/21 03:17:46;;;;;;;9.93;6.13;;;-3.40;99.90;;;;;;4944835;28;20039;-70
2021/12/21 03:20:11;;;;;;;10.05;5.90;;;-3.30;99.90;;;;;;4948003;28;20039;-70
2021/12/21 03:22:37;;;;;;;6.95;5.70;;;-3.40;99.90;;;;;;4934414;28;20067;-70
2021/12/21 03:25:04;;;;;;;11.90;6.40;;;-3.40;99.90;;;;;;4945286;28;20118;-70
2021/12/21 03:27:30;;;;;;;12.77;6.75;;;-3.40;99.90;;;;;;4945063;28;20039;-70
2021/12/21 03:29:56;;;;;;;12.88;6.00;;;-3.40;99.90;;;;;;4944859;28;20150;-70
2021/12/21 03:32:21;;;;;;;12.35;6.15;;;-3.40;99.90;;;;;;4944803;28;20117;-70
2021/12/21 03:34:47;;;;;;;10.10;5.82;;;-3.40;99.90;;;;;;4944214;28;20039;-70
2021/12/21 03:37:14;;;;;;;12.43;6.25;;;-3.40;99.90;;;;;;4946827;28;20534;-70
2021/12/21 03:39:45;;;;;;;11.23;6.13;;;-3.40;99.90;;;;;;4946691;28;20049;-70
2021/12/21 03:42:13;;;;;;;12.15;6.53;;;-3.40;99.90;;;;;;4951374;28;20123;-70
2021/12/21 03:44:39;;;;;;;9.73;6.05;;;-3.40;99.90;;;;;;4934396;29;20047;-70
2021/12/21 03:47:09;;;;;;;12.10;5.07;;;-3.50;99.90;;;;;;4930313;28;20084;-70
2021/12/21 03:52:18;;;;;;;9.93;5.20;;;-3.50;99.90;;;;;;4942090;28;20523;-70
2021/12/21 03:54:51;;;;;;;7.38;5.18;;;-3.50;99.90;;;;;;4944863;28;20051;-70
2021/12/21 03:57:17;;;;;;;6.72;5.00;;;-3.50;99.90;;;;;;4944096;28;20040;-70
2021/12/21 03:59:44;;;;;;;9.13;5.68;;;-3.50;99.90;;;;;;4938860;28;20047;-70
2021/12/21 04:02:12;;;;;;;13.65;6.07;;;-3.50;99.90;;;;;;4940949;28;20035;-70
2021/12/21 04:04:39;;;;;;;8.30;4.65;;;-3.50;99.90;;;;;;4976109;28;20126;-70
2021/12/21 04:07:05;;;;;;;7.70;5.25;;;-3.50;99.90;;;;;;4933623;29;20178;-70
2021/12/21 04:09:31;;;;;;;8.80;5.78;;;-3.50;99.90;;;;;;4946146;28;20126;-70
2021/12/21 04:11:57;;;;;;;7.95;5.32;;;-3.50;99.90;;;;;;4945406;28;20043;-70
2021/12/21 04:14:23;;;;;;;8.55;5.18;;;-3.60;99.90;;;;;;4946521;28;20047;-70
2021/12/21 04:16:49;;;;;;;9.77;5.47;;;-3.60;99.90;;;;;;4978112;28;20407;-70
2021/12/21 04:19:17;;;;;;;9.57;5.50;;;-3.60;99.90;;;;;;4928179;29;20519;-70
2021/12/21 04:21:43;;;;;;;8.73;5.60;;;-3.60;99.90;;;;;;4942520;28;20054;-70
2021/12/21 04:24:08;;;;;;;12.48;6.18;;;-3.60;99.90;;;;;;4944024;28;20052;-70
2021/12/21 04:26:34;;;;;;;7.82;5.32;;;-3.60;99.90;;;;;;4940108;28;20500;-70
2021/12/21 04:29:00;;;;;;;9.85;5.35;;;-3.60;99.90;;;;;;4950607;28;20054;-70
2021/12/21 04:31:26;;;;;;;9.68;5.65;;;-3.70;99.90;;;;;;4944681;28;20131;-70
2021/12/21 04:33:52;;;;;;;8.43;6.07;;;-3.60;99.90;;;;;;4947286;28;20889;-70
2021/12/21 04:36:17;;;;;;;8.90;4.90;;;-3.70;99.90;;;;;;4927982;28;20031;-70
2021/12/21 04:38:47;;;;;;;9.38;5.03;;;-3.70;99.90;;;;;;4946193;28;20107;-70
2021/12/21 04:41:25;;;;;;;9.27;4.15;;;-3.80;99.90;;;;;;4934190;29;20043;-70
2021/12/21 04:43:54;;;;;;;8.90;4.00;;;-3.80;99.90;;;;;;4931839;29;20058;-70
2021/12/21 04:46:20;;;;;;;6.45;4.30;;;-3.80;99.90;;;;;;4937049;28;20049;-70
2021/12/21 04:48:46;;;;;;;9.90;4.60;;;-3.80;99.90;;;;;;4947047;28;20044;-70
2021/12/21 04:51:12;;;;;;;7.97;4.43;;;-3.70;99.90;;;;;;4942184;28;20503;-70
2021/12/21 04:53:38;;;;;;;6.82;4.20;;;-3.80;99.90;;;;;;4951486;28;20185;-70
2021/12/21 04:56:04;;;;;;;8.50;4.07;;;-3.80;99.90;;;;;;4943452;28;20062;-70
2021/12/21 04:58:30;;;;;;;7.43;4.35;;;-3.80;99.90;;;;;;4943879;28;20998;-70
2021/12/21 05:00:56;;;;;;;8.10;4.57;;;-3.80;99.90;;;;;;4947703;28;20043;-70
2021/12/21 05:03:22;;;;;;;8.02;4.38;;;-3.80;99.90;;;;;;4951684;28;20127;-70
2021/12/21 05:05:48;;;;;;;8.38;4.60;;;-3.80;99.90;;;;;;4943365;28;20059;-70
2021/12/21 05:08:24;;;;;;;8.38;4.35;;;-3.80;99.90;;;;;;4950257;28;20416;-70
2021/12/21 05:10:53;;;;;;;8.10;4.90;;;-3.80;99.90;;;;;;4950099;28;20050;-70
2021/12/21 05:13:21;;;;;;;8.13;4.30;;;-3.80;99.90;;;;;;4950053;28;20063;-70
2021/12/21 05:15:47;;;;;;;9.75;4.85;;;-3.80;99.90;;;;;;4937593;29;20051;-70
2021/12/21 05:18:14;;;;;;;7.90;4.85;;;-3.90;99.90;;;;;;4945622;28;20578;-70
2021/12/21 05:20:41;;;;;;;10.98;5.35;;;-3.90;99.90;;;;;;4950767;28;20049;-70
2021/12/21 05:23:07;;;;;;;7.32;5.13;;;-3.80;99.90;;;;;;4942699;28;20488;-70
2021/12/21 05:25:33;;;;;;;8.30;4.72;;;-3.90;99.90;;;;;;4956446;28;20039;-70
2021/12/21 05:27:59;;;;;;;7.28;4.38;;;-3.90;99.90;;;;;;4944714;28;20095;-70
2021/12/21 05:30:26;;;;;;;7.03;4.60;;;-3.80;99.90;;;;;;4947392;28;20475;-70
2021/12/21 05:32:53;;;;;;;9.80;5.15;;;-3.90;99.90;;;;;;4948765;29;20598;-70
2021/12/21 05:35:20;;;;;;;10.27;5.60;;;-3.80;99.90;;;;;;4948848;28;20082;-70
2021/12/21 05:37:47;;;;;;;11.25;5.75;;;-3.90;99.90;;;;;;4933920;29;20050;-70
2021/12/21 05:40:16;;;;;;;9.43;5.20;;;-3.90;99.90;;;;;;4947335;28;20055;-70
2021/12/21 05:42:44;;;;;;;8.40;4.43;;;-3.90;99.90;;;;;;4941211;28;20044;-70
2021/12/21 05:45:12;;;;;;;11.02;5.32;;;-3.90;99.90;;;;;;4945917;28;20128;-70
2021/12/21 05:47:38;;;;;;;10.07;5.60;;;-3.90;99.90;;;;;;4939698;29;20044;-70
2021/12/21 05:50:09;;;;;;;9.35;4.20;;;-3.90;99.90;;;;;;4936885;28;20065;-70
2021/12/21 05:52:35;;;;;;;9.68;4.60;;;-3.90;99.90;;;;;;4947541;28;20118;-70
2021/12/21 05:55:01;;;;;;;7.47;4.43;;;-3.90;99.90;;;;;;4947199;28;20114;-70
2021/12/21 05:57:26;;;;;;;9.80;4.43;;;-3.90;99.90;;;;;;4930991;29;20051;-70
2021/12/21 05:59:52;;;;;;;7.07;4.53;;;-4.00;99.90;;;;;;4962400;28;20043;-70
2021/12/21 06:02:18;;;;;;;9.15;4.45;;;-4.00;99.90;;;;;;4945257;28;20066;-70
2021/12/21 06:04:44;;;;;;;10.15;4.53;;;-4.00;99.90;;;;;;4950093;28;20122;-70
2021/12/21 06:07:10;;;;;;;8.48;4.20;;;-4.00;99.90;;;;;;4948126;28;20046;-70
2021/12/21 06:09:36;;;;;;;9.30;5.00;;;-4.00;99.90;;;;;;4945679;29;20048;-70
2021/12/21 06:15:22;;;;;;;10.02;4.93;;;-4.00;99.90;;;;;;4947087;28;20047;-70
2021/12/21 06:25:41;;;;;;;104.63;62.85;;;-4.10;99.90;;;;;;4944434;28;20052;-69
2021/12/21 06:28:11;;;;;;;9.35;5.85;;;-4.10;99.90;;;;;;4931471;29;20268;-69
2021/12/21 06:30:39;;;;;;;10.70;4.68;;;-4.10;99.90;;;;;;4944810;28;20066;-69
2021/12/21 06:33:07;;;;;;;15.80;7.78;;;-4.00;99.90;;;;;;4948483;28;20055;-69
2021/12/21 06:35:35;;;;;;;12.23;5.45;;;-4.00;99.90;;;;;;4945448;28;20046;-69
2021/12/21 06:38:02;;;;;;;10.10;5.93;;;-4.00;99.90;;;;;;4953551;28;20034;-69
2021/12/21 06:40:28;;;;;;;7.90;4.95;;;-4.00;99.90;;;;;;4945230;28;20047;-69
2021/12/21 06:42:54;;;;;;;10.13;4.70;;;-4.00;99.90;;;;;;4937603;28;20189;-70
2021/12/21 06:45:29;;;;;;;9.43;5.10;;;-4.00;99.90;;;;;;4952282;28;20039;-70
2021/12/21 06:53:25;;;;;;;33.42;17.27;;;-4.00;99.90;;;;;;4952053;28;20050;-70
2021/12/21 06:55:50;;;;;;;19.83;11.05;;;-4.00;99.90;;;;;;4946530;28;20492;-70
2021/12/21 06:58:16;;;;;;;14.98;9.20;;;-4.00;99.90;;;;;;4950870;28;20043;-70
2021/12/21 07:00:43;;;;;;;12.00;7.70;;;-4.00;99.90;;;;;;4949499;28;20042;-70
2021/12/21 07:03:13;;;;;;;12.07;4.95;;;-4.00;99.90;;;;;;4945032;28;20120;-69
2021/12/21 07:05:40;;;;;;;9.68;6.07;;;-4.10;99.90;;;;;;4952027;28;20051;-69
2021/12/21 07:08:11;;;;;;;149.70;85.60;;;-4.10;99.90;;;;;;4952864;28;20094;-70
2021/12/21 07:10:39;;;;;;;187.88;107.93;;;-4.10;99.90;;;;;;4947826;28;20139;-70
2021/12/21 07:18:35;;;;;;;18.43;12.47;;;-4.10;99.90;;;;;;4950780;28;20043;-70
2021/12/21 07:21:01;;;;;;;16.83;10.30;;;-4.20;99.90;;;;;;4935101;28;20042;-70
2021/12/21 07:23:28;;;;;;;16.58;9.98;;;-4.20;99.90;;;;;;4945581;28;20035;-70
2021/12/21 07:25:54;;;;;;;30.98;15.73;;;-4.20;99.90;;;;;;4944919;28;20165;-70
2021/12/21 07:28:20;;;;;;;10.57;6.13;;;-4.20;99.90;;;;;;4939341;28;20558;-70
2021/12/21 07:30:47;;;;;;;15.57;8.98;;;-4.20;99.90;;;;;;4952175;28;20109;-69
2021/12/21 07:33:14;;;;;;;11.68;6.97;;;-4.20;99.90;;;;;;4944750;28;20043;-69
2021/12/21 07:35:40;;;;;;;12.23;7.07;;;-4.20;99.90;;;;;;4946738;28;20506;-69
2021/12/21 07:38:06;;;;;;;8.27;5.40;;;-4.20;99.90;;;;;;4949204;28;20121;-69
2021/12/21 07:40:32;;;;;;;10.95;5.32;;;-4.20;99.90;;;;;;4936451;28;20607;-69
2021/12/21 07:43:00;;;;;;;9.25;5.20;;;-4.20;99.90;;;;;;4945007;28;20046;-69
2021/12/21 07:45:26;;;;;;;7.68;5.38;;;-4.20;99.90;;;;;;4954366;28;20038;-69
2021/12/21 07:47:52;;;;;;;10.88;5.45;;;-4.20;99.90;;;;;;4934179;28;20050;-69
2021/12/21 07:50:19;;;;;;;8.65;5.50;;;-4.30;99.90;;;;;;4951668;28;20047;-69
2021/12/21 07:52:45;;;;;;;10.25;5.75;;;-4.20;99.90;;;;;;4945957;28;20472;-69
2021/12/21 07:55:11;;;;;;;8.07;4.93;;;-4.20;99.90;;;;;;4944643;28;20051;-69
2021/12/21 07:57:37;;;;;;;12.85;5.38;;;-4.20;99.90;;;;;;4944548;28;20039;-70
2021/12/21 08:00:06;;;;;;;256.73;133.52;;;-4.20;99.90;;;;;;4954334;28;20035;-70
2021/12/21 08:02:32;;;;;;;47.35;27.02;;;-4.20;99.90;;;;;;4950010;28;20049;-70
2021/12/21 08:04:58;;;;;;;11.15;5.88;;;-4.20;99.90;;;;;;4982039;28;20129;-70
2021/12/21 08:07:31;;;;;;;26.30;16.20;;;-4.10;99.90;;;;;;4940471;28;20405;-70
2021/12/21 08:09:58;;;;;;;11.32;7.18;;;-4.10;99.90;;;;;;4950535;28;20117;-70
2021/12/21 08:12:24;;;;;;;17.20;9.27;;;-4.10;99.90;;;;;;4946194;28;20047;-70
2021/12/21 08:14:51;;;;;;;13.73;7.78;;;-4.10;99.90;;;;;;4947379;28;20042;-70
2021/12/21 08:17:18;;;;;;;11.35;6.95;;;-4.10;99.90;;;;;;4946688;28;20147;-70
2021/12/21 08:19:45;;;;;;;15.52;7.45;;;-4.10;99.90;;;;;;4946623;28;20055;-70
2021/12/21 08:22:12;;;;;;;12.32;5.75;;;-4.10;99.90;;;;;;4936810;28;20134;-70
2021/12/21 08:24:38;;;;;;;11.07;5.90;;;-4.00;99.90;;;;;;4952281;28;20042;-70
2021/12/21 08:27:04;;;;;;;18.08;7.22;;;-4.00;99.90;;;;;;4945487;28;20059;-70
2021/12/21 08:29:31;;;;;;;11.70;6.38;;;-4.00;99.90;;;;;;4963324;28;20059;-71
2021/12/21 08:31:57;;;;;;;26.50;13.18;;;-4.00;99.90;;;;;;4957088;28;20047;-71
2021/12/21 08:34:23;;;;;;;10.13;6.32;;;-3.90;99.90;;;;;;4963611;28;20046;-71
2021/12/21 08:36:49;;;;;;;12.10;6.30;;;-3.90;99.90;;;;;;4956502;28;20039;-69
2021/12/21 08:39:17;;;;;;;11.07;6.78;;;-3.80;99.90;;;;;;4943906;28;20082;-70
2021/12/21 08:41:44;;;;;;;15.02;6.90;;;-3.80;99.90;;;;;;4948459;28;20134;-70
2021/12/21 08:44:11;;;;;;;13.88;6.30;;;-3.80;99.90;;;;;;4950316;28;20051;-69
2021/12/21 08:46:39;;;;;;;232.55;134.25;;;-3.70;99.90;;;;;;4938024;28;20058;-70
2021/12/21 08:49:04;;;;;;;251.70;149.07;;;-3.70;99.90;;;;;;4932441;28;20503;-70
2021/12/21 08:51:31;;;;;;;197.95;118.93;;;-3.60;99.90;;;;;;4950970;28;20116;-70
2021/12/21 08:53:56;;;;;;;36.60;21.63;;;-3.60;99.90;;;;;;4955368;28;20054;-70
2021/12/21 08:56:22;;;;;;;35.70;21.23;;;-3.50;99.90;;;;;;4957313;28;20038;-70
2021/12/21 08:58:48;;;;;;;25.63;14.63;;;-3.50;99.90;;;;;;4954292;28;20045;-70
2021/12/21 09:01:14;;;;;;;13.30;7.60;;;-3.50;99.90;;;;;;4946836;28;20078;-71
2021/12/21 09:03:39;;;;;;;14.52;7.28;;;-3.40;99.90;;;;;;4945811;28;20051;-71
2021/12/21 09:06:05;;;;;;;9.88;6.63;;;-3.30;99.90;;;;;;4939764;28;20462;-70
2021/12/21 09:08:32;;;;;;;15.25;7.97;;;-3.30;99.90;;;;;;4952812;28;20043;-70
2021/12/21 09:11:03;;;;;;;12.00;6.65;;;-3.20;99.90;;;;;;4985552;28;20038;-71
2021/12/21 09:13:29;;;;;;;11.60;7.07;;;-3.20;99.90;;;;;;4958512;28;20054;-70
2021/12/21 09:15:56;;;;;;;13.07;7.63;;;-3.20;99.90;;;;;;4950230;28;20062;-70
2021/12/21 09:18:21;;;;;;;10.93;7.53;;;-3.20;99.90;;;;;;4951048;28;20038;-70
2021/12/21 09:20:47;;;;;;;13.68;8.30;;;-3.10;99.90;;;;;;4952990;28;20035;-70
2021/12/21 09:23:14;;;;;;;13.32;7.28;;;-3.00;99.90;;;;;;4951578;28;20232;-70
2021/12/21 09:25:40;;;;;;;16.20;8.98;;;-3.00;99.90;;;;;;4950924;28;20125;-70
2021/12/21 09:28:06;;;;;;;14.32;9.27;;;-2.90;99.90;;;;;;4958629;28;20234;-70
2021/12/21 09:30:32;;;;;;;74.88;44.67;;;-2.80;99.90;;;;;;4948723;28;20063;-70
2021/12/21 09:32:58;;;;;;;310.85;194.07;;;-2.80;99.90;;;;;;4957190;28;20047;-70
2021/12/21 09:35:25;;;;;;;30.27;20.88;;;-2.70;99.90;;;;;;4932957;28;20047;-70
2021/12/21 09:37:51;;;;;;;35.60;20.38;;;-2.70;99.90;;;;;;4955156;28;20046;-70
2021/12/21 09:40:28;;;;;;;26.17;16.17;;;-2.60;99.90;;;;;;4942464;28;20452;-71
2021/12/21 09:42:55;;;;;;;21.25;13.00;;;-2.50;99.90;;;;;;4941895;28;20419;-71
2021/12/21 09:45:21;;;;;;;24.48;13.57;;;-2.50;99.90;;;;;;4937543;28;20388;-70
2021/12/21 09:47:51;;;;;;;25.15;13.80;;;-2.40;99.90;;;;;;4941076;28;20084;-70
2021/12/21 09:50:19;;;;;;;21.92;13.10;;;-2.30;99.90;;;;;;4945343;28;20102;-70
2021/12/21 09:52:45;;;;;;;22.15;14.43;;;-2.30;99.90;;;;;;4945979;28;20102;-70
2021/12/21 09:55:14;;;;;;;17.88;12.40;;;-2.20;99.90;;;;;;4952448;28;20059;-70
2021/12/21 09:57:40;;;;;;;22.90;15.77;;;-2.10;99.90;;;;;;4965847;28;20054;-70
2021/12/21 10:00:32;;;;;;;52.47;33.80;;;-2.00;99.90;;;;;;4942048;28;20125;-70
2021/12/21 10:03:03;;;;;;;50.55;33.63;;;-2.00;99.90;;;;;;4952910;28;20042;-70
2021/12/21 10:05:32;;;;;;;31.38;19.30;;;-1.90;99.90;;;;;;4939018;28;20495;-70
2021/12/21 10:08:04;;;;;;;26.77;17.48;;;-1.90;99.90;;;;;;4945796;28;20038;-71
2021/12/21 10:10:33;;;;;;;25.85;17.50;;;-1.70;99.90;;;;;;4949322;28;20042;-71
2021/12/21 10:13:11;;;;;;;27.60;17.00;;;-1.70;99.90;;;;;;4947559;28;20109;-71
2021/12/21 10:15:40;;;;;;;21.42;16.23;;;-1.60;99.90;;;;;;4953156;28;20121;-71
2021/12/21 10:18:06;;;;;;;28.60;16.77;;;-1.50;99.90;;;;;;4945414;28;20110;-71
2021/12/21 10:20:43;;;;;;;29.38;16.33;;;-1.40;99.90;;;;;;4953963;28;20046;-71
2021/12/21 10:23:30;;;;;;;24.92;16.30;;;-1.40;99.90;;;;;;4974403;28;20263;-71
2021/12/21 10:26:08;;;;;;;20.13;14.75;;;-1.20;99.90;;;;;;4949881;28;20101;-69
2021/12/21 10:28:40;;;;;;;22.95;15.35;;;-1.30;99.90;;;;;;4951918;28;20042;-69
2021/12/21 10:31:12;;;;;;;23.60;14.63;;;-1.20;99.90;;;;;;4968186;28;20046;-71
2021/12/21 10:33:43;;;;;;;20.90;14.70;;;-1.10;99.90;;;;;;4946538;28;20425;-70
2021/12/21 10:36:10;;;;;;;23.30;13.93;;;-1.00;99.90;;;;;;4951855;28;20097;-70
2021/12/21 10:38:47;;;;;;;22.92;14.43;;;-1.00;99.90;;;;;;4940386;28;20483;-70
2021/12/21 10:41:53;;;;;;;23.40;15.68;;;-0.90;99.90;;;;;;4945606;28;20047;-70
2021/12/21 10:44:19;;;;;;;;;;;-0.80;99.90;;;;;;4899566;29;20112;-70
2021/12/21 10:46:51;;;;;;;28.35;15.05;;;-0.70;99.90;;;;;;4889289;29;20586;-70
2021/12/21 10:49:26;;;;;;;25.10;14.63;;;-0.60;99.90;;;;;;4904634;28;20144;-70
2021/12/21 10:51:53;;;;;;;25.20;16.17;;;-0.50;99.90;;;;;;4934946;28;20054;-70
2021/12/21 10:54:34;;;;;;;23.50;14.95;;;-0.50;99.90;;;;;;4963432;28;20106;-70
2021/12/21 10:57:04;;;;;;;24.65;15.13;;;-0.40;99.90;;;;;;4979260;28;20059;-70
2021/12/21 10:59:36;;;;;;;172.90;107.28;;;-0.30;99.90;;;;;;4945693;28;20038;-70
2021/12/21 11:02:14;;;;;;;56.38;35.22;;;-0.30;99.90;;;;;;4937424;28;20069;-70
2021/12/21 11:04:50;;;;;;;28.52;16.10;;;-0.20;99.90;;;;;;4949626;28;20109;-70
2021/12/21 11:07:28;;;;;;;28.50;17.98;;;-0.20;99.90;;;;;;4952538;28;20043;-70
2021/12/21 11:10:17;;;;;;;27.02;15.20;;;-0.10;99.90;;;;;;4957914;28;20142;-70
2021/12/21 11:12:53;;;;;;;22.42;14.40;;;-0.10;99.90;;;;;;4947874;28;20113;-69
2021/12/21 11:15:28;;;;;;;23.00;15.40;;;0.00;99.90;;;;;;4953093;28;20137;-69
2021/12/21 11:17:58;;;;;;;23.50;14.48;;;0.10;99.90;;;;;;4947514;28;20131;-69
2021/12/21 11:20:25;;;;;;;22.15;14.30;;;0.10;99.90;;;;;;4949355;28;20046;-69
2021/12/21 11:22:52;;;;;;;23.27;14.75;;;0.10;99.90;;;;;;4968763;28;20058;-69
2021/12/21 11:25:19;;;;;;;25.13;15.48;;;0.20;99.90;;;;;;4963709;28;20079;-69
2021/12/21 11:27:45;;;;;;;27.05;15.38;;;0.30;99.90;;;;;;4951986;28;20105;-69
2021/12/21 11:30:16;;;;;;;26.15;14.70;;;0.30;99.90;;;;;;4939409;28;20135;-69
2021/12/21 11:32:46;;;;;;;21.65;16.45;;;0.40;99.90;;;;;;4953402;28;20077;-69
2021/12/21 11:37:41;;;;;;;127.18;82.35;;;0.50;99.90;;;;;;4952411;28;20059;-69
2021/12/21 11:40:10;;;;;;;33.30;23.35;;;0.60;99.90;;;;;;4946258;28;20112;-69
2021/12/21 11:42:53;;;;;;;30.75;20.17;;;0.60;99.90;;;;;;4947726;28;20111;-69
2021/12/21 11:45:28;;;;;;;29.58;20.05;;;0.70;99.90;;;;;;4957741;28;20043;-69
2021/12/21 11:48:17;;;;;;;23.83;16.67;;;0.70;99.90;;;;;;4962454;28;20062;-69
2021/12/21 11:50:45;;;;;;;26.08;14.95;;;0.80;99.90;;;;;;4942721;28;20312;-69
2021/12/21 11:53:14;;;;;;;22.27;15.70;;;0.80;99.90;;;;;;4964240;28;20043;-69
2021/12/21 11:55:43;;;;;;;22.33;14.20;;;0.80;99.90;;;;;;4974305;28;20046;-69
2021/12/21 11:58:28;;;;;;;18.40;13.95;;;0.80;99.90;;;;;;4948436;28;20127;-68
2021/12/21 12:01:00;;;;;;;24.20;13.60;;;0.80;99.90;;;;;;4951460;28;20046;-68
2021/12/21 12:03:29;;;;;;;18.05;13.65;;;0.90;99.90;;;;;;4965798;28;20043;-68
2021/12/21 12:06:01;;;;;;;19.13;13.23;;;0.90;99.90;;;;;;4977502;28;20049;-68
2021/12/21 12:08:57;;;;;;;26.30;14.60;;;0.90;99.90;;;;;;4954191;28;20039;-69
2021/12/21 12:11:35;;;;;;;23.95;13.40;;;0.90;99.90;;;;;;4950496;28;20039;-69
2021/12/21 12:14:12;;;;;;;19.65;12.93;;;1.20;99.90;;;;;;4959711;28;20113;-69
2021/12/21 12:16:50;;;;;;;17.95;12.77;;;1.10;99.90;;;;;;4940711;28;20058;-69
2021/12/21 12:19:19;;;;;;;645.72;471.90;;;1.10;99.90;;;;;;4954522;28;20483;-69
2021/12/21 12:21:56;;;;;;;23.10;16.77;;;1.10;99.90;;;;;;4954899;28;20427;-69
2021/12/21 12:24:24;;;;;;;104.82;70.65;;;1.10;99.90;;;;;;4971124;28;20055;-69
2021/12/21 12:26:59;;;;;;;61.92;39.20;;;1.20;99.90;;;;;;4946478;28;20102;-69
2021/12/21 12:29:25;;;;;;;33.47;22.50;;;1.20;99.90;;;;;;4970735;28;20066;-68
2021/12/21 12:32:07;;;;;;;25.85;16.13;;;1.20;99.90;;;;;;4951146;28;20042;-68
2021/12/21 12:34:36;;;;;;;21.30;13.50;;;1.20;99.90;;;;;;4961725;28;20051;-68
2021/12/21 12:37:15;;;;;;;19.58;12.75;;;1.20;99.90;;;;;;4956027;28;20085;-68
2021/12/21 12:39:43;;;;;;;22.65;12.60;;;1.20;99.90;;;;;;4952660;28;20171;-68
2021/12/21 12:42:18;;;;;;;19.02;12.55;;;1.20;99.90;;;;;;4949967;28;20082;-68
2021/12/21 12:44:45;;;;;;;;;;;1.20;99.90;;;;;;4992862;28;20049;-68
2021/12/21 12:47:15;;;;;;;19.58;11.90;;;1.20;99.90;;;;;;4951244;28;19929;-68
2021/12/21 12:49:50;;;;;;;16.70;11.77;;;1.30;99.90;;;;;;4964920;28;20063;-68
2021/12/21 12:52:19;;;;;;;17.25;11.60;;;1.40;99.90;;;;;;4945186;28;20519;-68
2021/12/21 12:54:52;;;;;;;23.65;13.00;;;1.40;99.90;;;;;;4942005;28;20414;-69
2021/12/21 12:57:32;;;;;;;20.73;12.38;;;1.50;99.90;;;;;;4955461;28;20038;-69
2021/12/21 13:00:12;;;;;;;15.93;11.27;;;1.40;99.90;;;;;;4967138;28;20041;-69
2021/12/21 13:02:38;;;;;;;23.27;13.38;;;1.40;99.90;;;;;;4950524;28;20081;-69
2021/12/21 13:05:08;;;;;;;20.85;13.45;;;1.40;99.90;;;;;;4956775;28;20055;-69
2021/12/21 13:07:34;;;;;;;21.77;15.63;;;1.50;99.90;;;;;;4955796;28;20185;-69
2021/12/21 13:10:07;;;;;;;22.52;14.25;;;1.50;99.90;;;;;;4951155;28;20402;-69
2021/12/21 13:12:33;;;;;;;20.30;12.80;;;1.50;99.90;;;;;;4967531;28;20125;-69
2021/12/21 13:14:59;;;;;;;18.20;12.05;;;1.40;99.90;;;;;;4977882;28;20071;-69
2021/12/21 13:17:25;;;;;;;20.67;14.07;;;1.50;99.90;;;;;;4953203;28;20039;-69
2021/12/21 13:19:51;;;;;;;109.30;72.22;;;1.50;99.90;;;;;;4950867;28;20053;-69
2021/12/21 13:22:26;;;;;;;19.10;13.52;;;1.40;99.90;;;;;;4950847;28;20046;-69
2021/12/21 13:24:52;;;;;;;;;;;1.40;99.90;;;;;;4955412;28;20333;-69
2021/12/21 13:27:21;;;;;;;23.65;15.50;;;1.40;99.90;;;;;;4949080;28;20295;-69
2021/12/21 13:29:48;;;;;;;22.63;14.02;;;1.40;99.90;;;;;;4976342;28;20105;-68
2021/12/21 13:32:17;;;;;;;20.52;13.98;;;1.40;99.90;;;;;;4954680;28;20047;-69
2021/12/21 13:34:53;;;;;;;15.77;11.15;;;1.40;99.90;;;;;;4946088;28;20051;-69
2021/12/21 13:37:21;;;;;;;15.25;11.50;;;1.40;99.90;;;;;;4951722;28;20369;-69
2021/12/21 13:39:50;;;;;;;21.48;10.93;;;1.40;99.90;;;;;;4950927;28;20126;-69
2021/12/21 13:42:24;;;;;;;16.55;11.82;;;1.50;99.90;;;;;;4945638;28;20134;-68
2021/12/21 13:44:56;;;;;;;19.70;12.30;;;1.60;99.90;;;;;;4946051;28;20035;-68
2021/12/21 13:47:29;;;;;;;18.25;11.18;;;1.50;99.90;;;;;;4953703;28;20051;-68
2021/12/21 13:50:06;;;;;;;39.78;30.15;;;1.50;99.90;;;;;;4941776;28;20055;-68
2021/12/21 13:52:57;;;;;;;19.77;12.15;;;1.60;99.90;;;;;;4947666;28;20051;-66
2021/12/21 13:55:30;;;;;;;23.17;13.00;;;1.60;99.90;;;;;;4935439;28;20119;-65